Terminal Aerodrome Forecast
Issued by NWS

Current Version | Previous Version | Text Only | Print | Product List | Glossary On
Versions: 1 2 3 4 5 6 7 8 9 10 11 12 13 14 15 16 17
691
FTUS46 KSEW 211740
TAFBFI
TAF
KBFI 211740Z 2118/2218 13006KT P6SM -RA SCT025 OVC030
     FM220100 17018G27KT 5SM -RA BR OVC015
     FM221200 22014G22KT P6SM SHRA OVC015=

USA.gov is the U.S. government's official web portal to all federal, state and local government web resources and services.